Impacts TAF Board
For situational awareness. Not to be used for flight planning purposes.
IDs:

KDDC - Dodge City Arpt, KS, US

Issued at 1732 UTC 02 Aug 2021
Updated at 2104 UTC 02 Aug 2021
Potential Impact None Slight Moderate High
Time2052Z 02/22Z 02/23Z 03/00Z 03/01Z 03/02Z 03/03Z 03/04Z 03/05Z 03/06Z 03/07Z 03/08Z 03/09Z 03/10Z>>
Type OBS PRVL PRVL PRVL PRVL PRVL PRVL PRVL PRVL PRVL PRVL PRVL PRVL PRVL
VIS 6 6 6 6 6 6 6 6 6 6 6 6 6 6
CIG -- -- -- -- -- -- -- -- -- -- -- -- -- --
Cover FEW FEW FEW FEW FEW FEW FEW FEW FEW FEW FEW FEW FEW FEW
FltCat VFR VFR VFR VFR VFR VFR VFR VFR VFR VFR VFR VFR VFR VFR
WX HZ FU FU FU FU FU FU FU FU FU FU FU FU FU
WDir VRB 60 60 60 60 60 60 60 60 60 60 60 60 60
WSpd 3 5 5 5 5 5 5 5 5 5 5 5 5 5
WGst -- -- -- -- -- -- -- -- -- -- -- -- -- --
Raw TAF
KDDC 021732Z 0218/0318 06005KT 6SM FU FEW250

Raw METAR
KDDC 022052Z AUTO VRB03KT 6SM HZ FEW070 29/12 A3017 RMK AO2 SLP188 T02890117 58018
KDDC 021952Z AUTO VRB05KT 6SM HZ CLR 29/12 A3018 RMK AO2 SLP194 T02940117
KDDC 021852Z AUTO 00000KT 6SM HZ CLR 28/11 A3021 RMK AO2 SLP203 T02780111

METAR Board
Radar Display
Forecast Discussion
For situational awareness. Not to be used for flight planning purposes.